Time;durP1;ratioP1;P1;durP2;ratioP2;P2;SDS_P1;SDS_P2;PMS_P1;PMS_P2;Temp;Humidity;BMP_temperature;BMP_pressure;BME280_temperature;BME280_humidity;BME280_pressure;Samples;Min_cycle;Max_cycle;Signal;HPM_P1;HPM_P2
2021/03/05 00:00:40;;;;;;;5.23;2.73;;;9.50;99.90;;;;;;5104765;28;20206;-83
2021/03/05 00:03:11;;;;;;;4.90;2.50;;;9.50;99.90;;;;;;5112780;28;20639;-83
2021/03/05 00:05:45;;;;;;;4.37;2.70;;;9.50;99.90;;;;;;5110516;28;20206;-83
2021/03/05 00:08:18;;;;;;;5.53;2.67;;;9.40;99.90;;;;;;5113000;28;20346;-83
2021/03/05 00:10:49;;;;;;;5.60;2.83;;;9.30;99.90;;;;;;5108369;28;20210;-84
2021/03/05 00:13:21;;;;;;;10.40;3.27;;;9.30;99.90;;;;;;5113575;28;20214;-84
2021/03/05 00:15:54;;;;;;;10.57;3.50;;;9.20;99.90;;;;;;5117289;28;20233;-83
2021/03/05 00:18:24;;;;;;;7.33;3.77;;;9.20;99.90;;;;;;5114906;28;20206;-85
2021/03/05 00:20:57;;;;;;;6.43;3.27;;;9.20;99.90;;;;;;5114635;28;20206;-82
2021/03/05 00:23:27;;;;;;;5.47;2.80;;;9.20;99.90;;;;;;5115585;28;20217;-83
2021/03/05 00:25:56;;;;;;;5.77;3.40;;;9.10;99.90;;;;;;5115085;28;20251;-82
2021/03/05 00:28:26;;;;;;;6.60;2.60;;;9.10;99.90;;;;;;5115294;28;20206;-82
2021/03/05 00:30:57;;;;;;;6.03;3.00;;;9.10;99.90;;;;;;5112762;28;20202;-82
2021/03/05 00:33:26;;;;;;;6.40;3.30;;;9.10;99.90;;;;;;5098953;28;20315;-84
2021/03/05 00:36:00;;;;;;;6.20;3.50;;;9.10;99.90;;;;;;5091999;28;20238;-82
2021/03/05 00:38:30;;;;;;;6.40;3.17;;;9.00;99.90;;;;;;5099509;28;20233;-81
2021/03/05 00:41:00;;;;;;;5.53;3.13;;;8.90;99.90;;;;;;5109954;28;20268;-83
2021/03/05 00:43:30;;;;;;;7.27;3.33;;;8.90;99.90;;;;;;5112787;28;20199;-82
2021/03/05 00:46:00;;;;;;;5.60;3.00;;;9.00;99.90;;;;;;5100047;28;20210;-82
2021/03/05 00:48:30;;;;;;;8.27;3.20;;;9.00;99.90;;;;;;5092898;28;20203;-84
2021/03/05 00:51:02;;;;;;;6.20;3.20;;;9.00;99.90;;;;;;5103147;28;20608;-84
2021/03/05 00:53:32;;;;;;;6.57;3.13;;;9.00;99.90;;;;;;5092268;28;20207;-84
2021/03/05 00:56:03;;;;;;;5.67;3.60;;;8.90;99.90;;;;;;5092995;28;20296;-84
2021/03/05 00:58:33;;;;;;;6.47;3.47;;;8.90;99.90;;;;;;5093801;28;20207;-83
2021/03/05 01:01:03;;;;;;;7.97;3.57;;;8.90;99.90;;;;;;5113715;28;20208;-84
2021/03/05 01:03:34;;;;;;;6.97;3.13;;;8.80;99.90;;;;;;5107246;28;20210;-84
2021/03/05 01:06:17;;;;;;;5.67;3.33;;;8.80;99.90;;;;;;5098547;28;20202;-84
2021/03/05 01:08:46;;;;;;;4.67;2.40;;;8.80;99.90;;;;;;5113226;28;20270;-84
2021/03/05 01:11:16;;;;;;;6.17;2.70;;;8.80;99.90;;;;;;5114970;28;20221;-85
2021/03/05 01:13:47;;;;;;;6.70;3.07;;;8.70;99.90;;;;;;5112165;28;20278;-84
2021/03/05 01:16:17;;;;;;;6.97;2.93;;;8.70;99.90;;;;;;5114022;28;20203;-84
2021/03/05 01:18:47;;;;;;;4.70;2.80;;;8.70;99.90;;;;;;5113544;28;20206;-86
2021/03/05 01:21:19;;;;;;;8.00;2.43;;;8.60;99.90;;;;;;5116987;28;20571;-84
2021/03/05 01:23:50;;;;;;;7.17;3.67;;;8.60;99.90;;;;;;5116392;28;20625;-84
2021/03/05 01:26:21;;;;;;;5.27;2.67;;;8.60;99.90;;;;;;5104429;28;20210;-84
2021/03/05 01:28:53;;;;;;;4.80;2.50;;;8.70;99.90;;;;;;5097885;28;20198;-83
2021/03/05 01:31:23;;;;;;;4.40;2.33;;;8.60;99.90;;;;;;5116044;28;20608;-83
2021/03/05 01:33:55;;;;;;;4.20;2.67;;;8.60;99.90;;;;;;5120049;27;20211;-82
2021/03/05 01:36:39;;;;;;;6.47;3.20;;;8.60;99.90;;;;;;5115696;28;20194;-83
2021/03/05 01:39:10;;;;;;;4.83;3.10;;;8.60;99.90;;;;;;5117439;28;20259;-84
2021/03/05 01:41:41;;;;;;;6.80;2.80;;;8.60;99.90;;;;;;5116208;28;20202;-83
2021/03/05 01:44:13;;;;;;;3.97;2.40;;;8.60;99.90;;;;;;5112448;28;20198;-83
2021/03/05 01:46:44;;;;;;;3.50;2.50;;;8.50;99.90;;;;;;5112266;28;20209;-84
2021/03/05 01:49:14;;;;;;;8.80;2.43;;;8.50;99.90;;;;;;5116565;28;20199;-83
2021/03/05 01:51:45;;;;;;;5.40;2.60;;;8.50;99.90;;;;;;5111830;28;20207;-83
2021/03/05 01:54:15;;;;;;;3.33;2.37;;;8.50;99.90;;;;;;5111088;28;20313;-84
2021/03/05 01:56:46;;;;;;;5.67;2.87;;;8.40;99.90;;;;;;5097489;28;20236;-83
2021/03/05 01:59:18;;;;;;;3.50;2.43;;;8.40;99.90;;;;;;5098200;28;20992;-83
2021/03/05 02:01:48;;;;;;;6.80;2.50;;;8.40;99.90;;;;;;5106529;28;20621;-84
2021/03/05 02:04:18;;;;;;;4.07;2.20;;;8.40;99.90;;;;;;5116897;28;20209;-88
2021/03/05 02:07:03;;;;;;;7.47;2.83;;;8.40;99.90;;;;;;5118594;28;20540;-85
2021/03/05 02:09:34;;;;;;;3.80;2.50;;;8.40;99.90;;;;;;5115277;28;20667;-84
2021/03/05 02:12:05;;;;;;;3.13;2.17;;;8.30;99.90;;;;;;5114125;28;20213;-84
2021/03/05 02:14:35;;;;;;;3.50;2.30;;;8.30;99.90;;;;;;5134225;28;20250;-84
2021/03/05 02:17:12;;;;;;;4.97;2.47;;;8.40;99.90;;;;;;5134913;28;20210;-85
2021/03/05 02:20:09;;;;;;;4.83;2.80;;;8.30;99.90;;;;;;5116503;28;20209;-84
2021/03/05 02:23:15;;;;;;;4.60;2.50;;;8.30;99.90;;;;;;5100759;28;20708;-84
2021/03/05 02:26:20;;;;;;;6.50;2.30;;;8.30;99.90;;;;;;5105010;28;20228;-84
2021/03/05 02:29:26;;;;;;;4.63;2.53;;;8.20;99.90;;;;;;5083569;28;20202;-84
2021/03/05 02:32:03;;;;;;;6.53;2.53;;;8.20;99.90;;;;;;5117866;28;20548;-84
2021/03/05 02:34:39;;;;;;;4.47;2.47;;;8.20;99.90;;;;;;5116107;28;20232;-84
2021/03/05 02:37:30;;;;;;;5.80;2.73;;;8.20;99.90;;;;;;5116934;28;20214;-85
2021/03/05 02:40:07;;;;;;;3.57;2.50;;;8.20;99.90;;;;;;5115645;28;20243;-83
2021/03/05 02:42:43;;;;;;;3.90;2.40;;;8.10;99.90;;;;;;5095718;28;20210;-84
2021/03/05 02:45:18;;;;;;;6.53;2.40;;;8.20;99.90;;;;;;5106718;28;20384;-83
2021/03/05 02:47:56;;;;;;;3.63;2.33;;;8.20;99.90;;;;;;5099719;28;20240;-83
2021/03/05 02:50:31;;;;;;;10.67;2.60;;;8.20;99.90;;;;;;5113605;28;20300;-84
2021/03/05 02:53:05;;;;;;;5.17;2.40;;;8.20;99.90;;;;;;5121135;28;20626;-84
2021/03/05 02:55:38;;;;;;;4.37;2.80;;;8.20;99.90;;;;;;5134550;28;20233;-82
2021/03/05 02:58:10;;;;;;;3.40;2.10;;;8.20;99.90;;;;;;5136647;28;20202;-83
2021/03/05 03:00:41;;;;;;;4.53;2.07;;;8.10;99.90;;;;;;5133713;28;20228;-83
2021/03/05 03:03:22;;;;;;;3.60;2.40;;;8.10;99.90;;;;;;5124556;28;20203;-85
2021/03/05 03:05:53;;;;;;;9.43;4.10;;;8.10;99.90;;;;;;5126349;28;20281;-84
2021/03/05 03:08:24;;;;;;;14.13;4.70;;;8.20;99.90;;;;;;5115089;28;20199;-84
2021/03/05 03:10:57;;;;;;;8.43;3.53;;;8.10;99.90;;;;;;5114987;28;20198;-85
2021/03/05 03:13:28;;;;;;;4.80;3.77;;;8.10;99.90;;;;;;5094753;28;20651;-84
2021/03/05 03:16:01;;;;;;;4.83;3.60;;;8.10;99.90;;;;;;5095399;28;20321;-85
2021/03/05 03:18:34;;;;;;;6.77;3.47;;;8.00;99.90;;;;;;5095841;28;20331;-85
2021/03/05 03:21:06;;;;;;;7.07;3.70;;;8.10;99.90;;;;;;5100453;28;20226;-85
2021/03/05 03:23:37;;;;;;;8.00;3.70;;;8.10;99.90;;;;;;5077053;28;20268;-84
2021/03/05 03:26:52;;;;;;;;;;;;;;;;;;;;;
2021/03/05 03:29:41;;;;;;;;;;;;;;;;;;;;;
2021/03/05 03:32:24;;;;;;;9.53;4.63;;;8.10;99.90;;;;;;5094916;28;20659;-85
2021/03/05 03:35:00;;;;;;;11.20;5.00;;;8.10;99.90;;;;;;5108174;28;20236;-85
2021/03/05 03:37:31;;;;;;;10.87;5.20;;;8.10;99.90;;;;;;5115322;28;20195;-85
2021/03/05 03:40:02;;;;;;;9.87;5.20;;;8.10;99.90;;;;;;5114037;28;20274;-84
2021/03/05 03:42:33;;;;;;;7.83;4.77;;;8.10;99.90;;;;;;5116006;28;20273;-84
2021/03/05 03:45:10;;;;;;;12.30;5.23;;;8.10;99.90;;;;;;5117416;28;20198;-84
2021/03/05 03:47:42;;;;;;;10.80;6.63;;;8.10;99.90;;;;;;5110484;28;20207;-83
2021/03/05 03:50:35;;;;;;;15.23;7.33;;;8.10;99.90;;;;;;5100250;28;20199;-84
2021/03/05 03:53:14;;;;;;;16.33;7.57;;;8.10;99.90;;;;;;5107013;28;20202;-85
2021/03/05 03:55:50;;;;;;;15.43;6.10;;;8.10;99.90;;;;;;5101605;28;20232;-84
2021/03/05 03:58:27;;;;;;;10.73;6.93;;;8.10;99.90;;;;;;5107723;28;20680;-83
2021/03/05 04:01:04;;;;;;;13.27;8.27;;;8.10;99.90;;;;;;5114318;28;20205;-82
2021/03/05 04:03:37;;;;;;;13.10;8.33;;;8.10;99.90;;;;;;5112688;28;20198;-84
2021/03/05 04:06:10;;;;;;;14.70;8.13;;;8.10;99.90;;;;;;5111630;28;20203;-84
2021/03/05 04:08:44;;;;;;;8.57;6.43;;;8.10;99.90;;;;;;5123986;28;20201;-84
2021/03/05 04:11:14;;;;;;;9.03;6.40;;;8.10;99.90;;;;;;5104345;28;20256;-84
2021/03/05 04:13:45;;;;;;;13.17;6.87;;;8.10;99.90;;;;;;5098434;28;20203;-84
2021/03/05 04:16:16;;;;;;;9.67;6.80;;;8.10;99.90;;;;;;5115501;28;20234;-85
2021/03/05 04:18:45;;;;;;;13.47;8.93;;;8.10;99.90;;;;;;5112842;28;20209;-84
2021/03/05 04:21:20;;;;;;;15.67;9.03;;;8.10;99.90;;;;;;5112581;28;20210;-84
2021/03/05 04:23:51;;;;;;;19.03;10.03;;;8.10;99.90;;;;;;5095840;28;20199;-84
2021/03/05 04:26:21;;;;;;;14.20;8.13;;;8.10;99.90;;;;;;5092545;28;20852;-84
2021/03/05 04:28:51;;;;;;;12.27;7.87;;;8.10;99.90;;;;;;5092770;28;20215;-84
2021/03/05 04:31:21;;;;;;;12.13;7.90;;;8.10;99.90;;;;;;5096813;28;20225;-84
2021/03/05 04:33:53;;;;;;;15.27;8.37;;;8.10;99.90;;;;;;5092074;28;20553;-84
2021/03/05 04:36:26;;;;;;;13.43;8.17;;;8.10;99.90;;;;;;5112316;28;20230;-83
2021/03/05 04:39:05;;;;;;;10.27;6.67;;;8.10;99.90;;;;;;5108324;28;20202;-82
2021/03/05 04:41:36;;;;;;;12.47;8.73;;;8.00;99.90;;;;;;5109549;28;20202;-83
2021/03/05 04:44:07;;;;;;;18.03;11.20;;;8.00;99.90;;;;;;5087138;28;20202;-83
2021/03/05 04:46:38;;;;;;;13.17;7.33;;;8.00;99.90;;;;;;5103117;28;20616;-84
2021/03/05 04:49:09;;;;;;;12.33;8.77;;;8.00;99.90;;;;;;5102748;28;20203;-83
2021/03/05 04:51:42;;;;;;;15.23;8.17;;;8.00;99.90;;;;;;5095057;28;20747;-83
2021/03/05 04:54:12;;;;;;;12.83;8.27;;;7.90;99.90;;;;;;5110865;28;20278;-82
2021/03/05 04:56:42;;;;;;;17.27;8.93;;;7.90;99.90;;;;;;5105418;28;20651;-84
2021/03/05 04:59:13;;;;;;;10.23;6.30;;;8.00;99.90;;;;;;5112591;28;20572;-83
2021/03/05 05:01:42;;;;;;;9.60;5.60;;;7.90;99.90;;;;;;5099358;28;20210;-84
2021/03/05 05:04:12;;;;;;;13.77;5.50;;;7.90;99.90;;;;;;5112663;28;20197;-83
2021/03/05 05:06:46;;;;;;;7.43;4.73;;;7.90;99.90;;;;;;5107155;28;20208;-83
2021/03/05 05:09:20;;;;;;;10.67;5.40;;;8.00;99.90;;;;;;5101203;28;20284;-84
2021/03/05 05:11:50;;;;;;;9.07;6.30;;;8.00;99.90;;;;;;5107846;28;20593;-84
2021/03/05 05:14:20;;;;;;;9.57;5.37;;;8.00;99.90;;;;;;5110284;28;20231;-83
2021/03/05 05:16:50;;;;;;;11.43;5.73;;;8.00;99.90;;;;;;5115777;28;20366;-84
2021/03/05 05:19:20;;;;;;;10.17;5.80;;;8.10;99.90;;;;;;5099909;28;20213;-84
2021/03/05 05:21:51;;;;;;;9.27;5.50;;;8.00;99.90;;;;;;5114213;28;20206;-85
2021/03/05 05:24:21;;;;;;;8.80;5.67;;;8.00;99.90;;;;;;5108729;28;20238;-84
2021/03/05 05:26:51;;;;;;;7.77;4.97;;;7.90;99.90;;;;;;5098475;28;20286;-84
2021/03/05 05:29:22;;;;;;;12.00;7.33;;;7.90;99.90;;;;;;5099777;28;20203;-85
2021/03/05 05:31:56;;;;;;;8.57;6.17;;;7.80;99.90;;;;;;5115633;28;20199;-85
2021/03/05 05:34:26;;;;;;;9.80;6.80;;;7.80;99.90;;;;;;5103691;28;20291;-84
2021/03/05 05:36:58;;;;;;;11.87;7.23;;;7.80;99.90;;;;;;5108604;28;20276;-84
2021/03/05 05:39:42;;;;;;;12.37;7.57;;;7.80;99.90;;;;;;5098070;28;20667;-83
2021/03/05 05:42:12;;;;;;;10.60;6.90;;;7.80;99.90;;;;;;5100928;28;20233;-82
2021/03/05 05:44:42;;;;;;;11.57;6.60;;;7.80;99.90;;;;;;5104032;28;20643;-82
2021/03/05 05:47:16;;;;;;;8.27;5.67;;;7.80;99.90;;;;;;5095408;28;20573;-83
2021/03/05 05:49:47;;;;;;;9.13;6.17;;;7.80;99.90;;;;;;5095691;28;20209;-83
2021/03/05 05:52:26;;;;;;;8.13;6.00;;;7.80;99.90;;;;;;5106212;28;20647;-82
2021/03/05 05:54:57;;;;;;;12.10;6.00;;;7.80;99.90;;;;;;5114133;28;20770;-82
2021/03/05 05:57:30;;;;;;;7.27;5.37;;;7.70;99.90;;;;;;5115740;28;20219;-83
2021/03/05 06:00:04;;;;;;;7.27;5.47;;;7.70;99.90;;;;;;5104947;28;20331;-83
2021/03/05 06:02:35;;;;;;;8.47;5.37;;;7.70;99.90;;;;;;5104492;28;20284;-84
2021/03/05 06:05:07;;;;;;;9.30;5.90;;;7.70;99.90;;;;;;5096093;28;20229;-83
2021/03/05 06:07:41;;;;;;;8.90;5.80;;;7.70;99.90;;;;;;5098385;28;20203;-84
2021/03/05 06:10:13;;;;;;;5.80;4.77;;;7.70;99.90;;;;;;5081795;28;20202;-83
2021/03/05 06:12:49;;;;;;;5.63;4.30;;;7.70;99.90;;;;;;5103047;28;20231;-83
2021/03/05 06:15:21;;;;;;;7.27;3.90;;;7.70;99.90;;;;;;5102087;28;20237;-85
2021/03/05 06:17:51;;;;;;;7.43;3.80;;;7.70;99.90;;;;;;5103771;28;20223;-84
2021/03/05 06:20:24;;;;;;;5.17;3.60;;;7.70;99.90;;;;;;5104406;28;20241;-85
2021/03/05 06:23:11;;;;;;;4.87;3.93;;;7.70;99.90;;;;;;5100613;28;20230;-85
2021/03/05 06:25:43;;;;;;;7.13;3.93;;;7.70;99.90;;;;;;5098919;28;20633;-84
2021/03/05 06:28:18;;;;;;;5.77;4.57;;;7.70;99.90;;;;;;5097351;28;20214;-85
2021/03/05 06:30:49;;;;;;;7.87;4.37;;;7.60;99.90;;;;;;5095934;28;20612;-84
2021/03/05 06:33:25;;;;;;;7.00;5.27;;;7.50;99.90;;;;;;5096098;28;20203;-85
2021/03/05 06:35:56;;;;;;;8.93;5.03;;;7.50;99.90;;;;;;5095982;28;20230;-84
2021/03/05 06:38:52;;;;;;;9.30;5.30;;;7.50;99.90;;;;;;5095908;28;20930;-84
2021/03/05 06:41:24;;;;;;;6.00;4.10;;;7.50;99.90;;;;;;5095861;28;20217;-83
2021/03/05 06:43:55;;;;;;;5.50;4.33;;;7.50;99.90;;;;;;5094418;28;20348;-83
2021/03/05 06:46:37;;;;;;;7.00;4.03;;;7.50;99.90;;;;;;5094280;28;20663;-84
2021/03/05 06:49:08;;;;;;;4.63;3.77;;;7.50;99.90;;;;;;5094902;28;20199;-83
2021/03/05 06:51:38;;;;;;;5.03;3.80;;;7.50;99.90;;;;;;5095240;28;20631;-85
2021/03/05 06:54:13;;;;;;;6.30;3.97;;;7.50;99.90;;;;;;5109023;28;20209;-83
2021/03/05 06:56:48;;;;;;;4.10;3.17;;;7.60;99.90;;;;;;5115148;28;20230;-84
2021/03/05 06:59:21;;;;;;;6.60;3.80;;;7.60;99.90;;;;;;5109727;28;20187;-84
2021/03/05 07:01:54;;;;;;;6.87;3.47;;;7.60;99.90;;;;;;5077415;28;20203;-83
2021/03/05 07:04:26;;;;;;;4.70;3.37;;;7.60;99.90;;;;;;5095712;28;20293;-83
2021/03/05 07:07:03;;;;;;;4.27;3.27;;;7.60;99.90;;;;;;5101607;28;20197;-84
2021/03/05 07:09:37;;;;;;;6.47;3.83;;;7.50;99.90;;;;;;5117245;28;20546;-84
2021/03/05 07:12:10;;;;;;;6.50;4.13;;;7.60;99.90;;;;;;5118115;28;20208;-83
2021/03/05 07:14:43;;;;;;;5.10;3.43;;;7.50;99.90;;;;;;5100974;28;20247;-84
2021/03/05 07:17:15;;;;;;;4.47;3.60;;;7.50;99.90;;;;;;5121718;28;20221;-85
2021/03/05 07:19:46;;;;;;;5.87;4.23;;;7.50;99.90;;;;;;5135191;28;20285;-85
2021/03/05 07:22:20;;;;;;;5.47;4.20;;;7.50;99.90;;;;;;5136400;28;20204;-84
2021/03/05 07:24:52;;;;;;;6.67;4.00;;;7.50;99.90;;;;;;5129394;28;20259;-85
2021/03/05 07:27:30;;;;;;;6.73;4.73;;;7.50;99.90;;;;;;5120845;28;20205;-84
2021/03/05 07:30:02;;;;;;;6.27;4.17;;;7.50;99.90;;;;;;5116578;28;20240;-85
2021/03/05 07:32:40;;;;;;;6.57;4.33;;;7.50;99.90;;;;;;5115885;28;20228;-85
2021/03/05 07:35:19;;;;;;;5.07;3.90;;;7.50;99.90;;;;;;5113925;28;20548;-83
2021/03/05 07:37:55;;;;;;;9.27;3.90;;;7.50;99.90;;;;;;5114309;28;20255;-83
2021/03/05 07:40:28;;;;;;;8.60;3.80;;;7.40;99.90;;;;;;5114492;28;20201;-81
2021/03/05 07:43:01;;;;;;;4.90;3.57;;;7.50;99.90;;;;;;5114449;28;20596;-84
2021/03/05 07:45:32;;;;;;;4.63;3.60;;;7.50;99.90;;;;;;5113542;28;20236;-82
2021/03/05 07:48:09;;;;;;;4.87;3.83;;;7.50;99.90;;;;;;5082367;28;20210;-82
2021/03/05 07:50:40;;;;;;;6.83;3.80;;;7.50;99.90;;;;;;5114258;28;20204;-82
2021/03/05 07:53:10;;;;;;;5.87;3.30;;;7.40;99.90;;;;;;5087566;28;20240;-83
2021/03/05 07:55:43;;;;;;;4.90;3.30;;;7.40;99.90;;;;;;5101244;28;20747;-83
2021/03/05 07:58:46;;;;;;;4.77;3.43;;;7.50;99.90;;;;;;5106652;28;20207;-83
2021/03/05 08:01:16;;;;;;;5.37;3.17;;;7.50;99.90;;;;;;5097279;28;20200;-84
2021/03/05 08:03:56;;;;;;;5.43;2.70;;;7.50;99.90;;;;;;5109251;28;20210;-83
2021/03/05 08:06:31;;;;;;;4.00;2.97;;;7.40;99.90;;;;;;5103549;28;20222;-82
2021/03/05 08:09:10;;;;;;;3.50;3.07;;;7.50;99.90;;;;;;5116239;28;20206;-82
2021/03/05 08:11:43;;;;;;;3.90;2.67;;;7.40;99.90;;;;;;5078530;28;20211;-83
2021/03/05 08:14:27;;;;;;;4.37;2.57;;;7.50;99.90;;;;;;5095766;28;20206;-84
2021/03/05 08:16:58;;;;;;;5.70;2.63;;;7.50;99.90;;;;;;5104387;28;20252;-83
2021/03/05 08:19:48;;;;;;;5.63;2.83;;;7.40;99.90;;;;;;5096581;28;20311;-84
2021/03/05 08:22:21;;;;;;;4.60;3.20;;;7.40;99.90;;;;;;5115328;28;20611;-85
2021/03/05 08:24:51;;;;;;;4.37;2.53;;;7.50;99.90;;;;;;5113885;28;20209;-85
2021/03/05 08:27:37;;;;;;;3.90;2.47;;;7.50;99.90;;;;;;5114354;28;20275;-83
2021/03/05 08:30:43;;;;;;;3.73;2.60;;;7.50;99.90;;;;;;5116791;28;20282;-84
2021/03/05 08:33:29;;;;;;;3.93;2.30;;;7.50;99.90;;;;;;5111478;28;20653;-86
2021/03/05 08:36:00;;;;;;;4.07;2.50;;;7.40;99.90;;;;;;5107423;28;20231;-84
2021/03/05 08:38:36;;;;;;;4.00;2.37;;;7.40;99.90;;;;;;5109640;28;20195;-85
2021/03/05 08:41:07;;;;;;;2.50;2.30;;;7.40;99.90;;;;;;5104940;28;20291;-84
2021/03/05 08:43:40;;;;;;;2.83;1.90;;;7.40;99.90;;;;;;5100778;28;20262;-85
2021/03/05 08:46:12;;;;;;;2.67;2.03;;;7.30;99.90;;;;;;5103292;28;20691;-84
2021/03/05 08:48:44;;;;;;;2.80;2.20;;;7.30;99.90;;;;;;5107716;28;20259;-84
2021/03/05 08:51:17;;;;;;;3.17;2.20;;;7.30;99.90;;;;;;5112384;28;20264;-84
2021/03/05 08:53:50;;;;;;;2.97;2.20;;;7.30;99.90;;;;;;5102560;28;20615;-83
2021/03/05 08:56:25;;;;;;;5.10;2.53;;;7.30;99.90;;;;;;5086026;28;20234;-83
2021/03/05 08:59:02;;;;;;;4.33;2.47;;;7.30;99.90;;;;;;5093634;28;20323;-85
2021/03/05 09:01:37;;;;;;;3.80;2.10;;;7.30;99.90;;;;;;5119182;28;20649;-83
2021/03/05 09:04:13;;;;;;;2.90;2.40;;;7.30;99.90;;;;;;5118462;28;20206;-84
2021/03/05 09:06:51;;;;;;;3.30;2.40;;;7.30;99.90;;;;;;5088997;28;20211;-84
2021/03/05 09:09:23;;;;;;;4.27;2.50;;;7.20;99.90;;;;;;5115391;28;20239;-85
2021/03/05 09:12:12;;;;;;;4.77;2.60;;;7.20;99.90;;;;;;5116897;28;20580;-85
2021/03/05 09:14:46;;;;;;;2.83;2.00;;;7.20;99.90;;;;;;5116398;28;20273;-84
2021/03/05 09:17:17;;;;;;;3.20;2.60;;;7.20;99.90;;;;;;5120217;28;20609;-84
2021/03/05 09:19:49;;;;;;;5.23;2.33;;;7.20;99.90;;;;;;5106089;28;20217;-84
2021/03/05 09:22:21;;;;;;;3.17;2.40;;;7.20;99.90;;;;;;5101060;28;20783;-84
2021/03/05 09:24:55;;;;;;;2.30;1.93;;;7.20;99.90;;;;;;5098179;28;20661;-83
2021/03/05 09:27:28;;;;;;;3.77;2.43;;;7.20;99.90;;;;;;5099376;28;20211;-83
2021/03/05 09:30:01;;;;;;;2.23;1.70;;;7.20;99.90;;;;;;5117206;28;20235;-85
2021/03/05 09:32:31;;;;;;;5.77;2.27;;;7.10;99.90;;;;;;5119776;28;20338;-84
2021/03/05 09:35:04;;;;;;;3.63;2.20;;;7.20;99.90;;;;;;5118827;28;20236;-83
2021/03/05 09:37:34;;;;;;;2.97;2.10;;;7.20;99.90;;;;;;5114500;28;20319;-82
2021/03/05 09:40:08;;;;;;;3.70;1.90;;;7.20;99.90;;;;;;5097035;28;20240;-83
2021/03/05 09:42:53;;;;;;;4.57;2.30;;;7.20;99.90;;;;;;5106166;28;20217;-82
2021/03/05 09:45:41;;;;;;;3.23;2.47;;;7.10;99.90;;;;;;5101999;28;20261;-83
2021/03/05 09:48:13;;;;;;;3.23;2.13;;;7.10;99.90;;;;;;5116402;28;20202;-83
2021/03/05 09:50:58;;;;;;;3.00;2.30;;;7.10;99.90;;;;;;5116019;28;20217;-85
2021/03/05 09:53:32;;;;;;;4.63;2.97;;;7.10;99.90;;;;;;5114287;28;20299;-82
2021/03/05 09:56:05;;;;;;;3.53;2.37;;;7.10;99.90;;;;;;5114622;28;20316;-82
2021/03/05 09:58:36;;;;;;;4.00;2.30;;;7.20;99.90;;;;;;5115945;28;20607;-82
2021/03/05 10:01:15;;;;;;;3.10;2.17;;;7.20;99.90;;;;;;5114915;28;20716;-82
2021/03/05 10:03:51;;;;;;;3.00;2.10;;;7.20;99.90;;;;;;5112716;28;20706;-82
2021/03/05 10:06:23;;;;;;;4.03;2.10;;;7.20;99.90;;;;;;4753811;28;9999658;-82
2021/03/05 10:09:01;;;;;;;3.37;2.13;;;7.20;99.90;;;;;;5107869;28;20295;-82
2021/03/05 10:11:35;;;;;;;4.53;2.27;;;7.10;99.90;;;;;;5094716;28;20662;-83
2021/03/05 10:14:07;;;;;;;3.37;2.33;;;7.00;99.90;;;;;;5093986;28;20210;-83
2021/03/05 10:16:39;;;;;;;3.47;2.60;;;7.00;99.90;;;;;;5097919;28;21071;-83
2021/03/05 10:19:13;;;;;;;3.93;2.73;;;6.90;99.90;;;;;;5115476;28;20217;-83
2021/03/05 10:21:46;;;;;;;3.47;2.60;;;6.90;99.90;;;;;;5116325;28;20213;-83
2021/03/05 10:24:18;;;;;;;4.33;2.40;;;6.80;99.90;;;;;;5115956;28;20213;-83
2021/03/05 10:27:14;;;;;;;3.20;2.33;;;6.80;99.90;;;;;;5100153;28;20639;-84
2021/03/05 10:29:46;;;;;;;3.90;2.83;;;6.80;99.90;;;;;;5103217;28;20717;-84
2021/03/05 10:32:23;;;;;;;4.87;2.77;;;6.90;99.90;;;;;;5105052;28;20210;-85
2021/03/05 10:34:55;;;;;;;2.77;2.40;;;6.90;99.90;;;;;;5116617;28;20274;-84
2021/03/05 10:37:25;;;;;;;2.57;2.27;;;6.90;99.90;;;;;;5118239;28;20233;-83
2021/03/05 10:39:55;;;;;;;2.40;1.90;;;6.90;99.90;;;;;;5116818;28;20451;-84
2021/03/05 10:42:25;;;;;;;3.80;2.33;;;6.90;99.90;;;;;;5115027;28;20206;-83
2021/03/05 10:44:55;;;;;;;4.03;2.30;;;7.00;99.90;;;;;;5117765;28;20214;-85
2021/03/05 10:47:26;;;;;;;2.80;2.10;;;7.10;99.90;;;;;;5117357;28;20211;-84
2021/03/05 10:49:56;;;;;;;4.37;2.53;;;7.00;99.90;;;;;;5118414;28;20206;-83
2021/03/05 10:52:26;;;;;;;2.70;2.23;;;7.00;99.90;;;;;;5114601;28;20215;-84
2021/03/05 10:54:57;;;;;;;2.93;2.50;;;7.10;99.90;;;;;;5116106;28;20206;-84
2021/03/05 10:57:27;;;;;;;5.33;2.60;;;7.00;99.90;;;;;;5114942;28;20720;-83
2021/03/05 10:59:57;;;;;;;4.00;2.87;;;7.00;99.90;;;;;;5114622;28;20269;-83
2021/03/05 11:02:29;;;;;;;6.13;2.70;;;7.00;99.90;;;;;;5114285;28;20279;-83
2021/03/05 11:05:00;;;;;;;4.13;2.53;;;7.00;99.90;;;;;;5094493;28;20198;-83
2021/03/05 11:07:33;;;;;;;5.50;2.50;;;7.10;99.90;;;;;;5114870;28;20206;-83
2021/03/05 11:10:04;;;;;;;3.80;2.50;;;7.10;99.90;;;;;;5114635;28;20204;-83
2021/03/05 11:12:38;;;;;;;5.30;3.10;;;7.10;99.90;;;;;;5114547;28;20203;-83
2021/03/05 11:15:10;;;;;;;4.10;3.07;;;7.10;99.90;;;;;;5095655;28;20198;-83
2021/03/05 11:17:43;;;;;;;4.30;2.80;;;7.10;99.90;;;;;;5114276;28;20253;-82
2021/03/05 11:20:15;;;;;;;4.93;3.40;;;7.10;99.90;;;;;;5114268;28;20214;-84
2021/03/05 11:22:47;;;;;;;5.10;3.27;;;7.10;99.90;;;;;;5113601;28;20222;-84
2021/03/05 11:25:18;;;;;;;4.97;3.63;;;7.10;99.90;;;;;;5094866;28;20203;-84
2021/03/05 11:27:49;;;;;;;5.00;3.80;;;7.10;99.90;;;;;;5105573;28;20210;-84
2021/03/05 11:30:21;;;;;;;3.87;3.40;;;7.10;99.90;;;;;;5093569;28;20210;-84
2021/03/05 11:32:53;;;;;;;7.20;3.30;;;7.10;99.90;;;;;;5093731;28;20634;-84
2021/03/05 11:35:24;;;;;;;4.27;3.57;;;7.10;99.90;;;;;;5110798;28;20615;-83
2021/03/05 11:37:54;;;;;;;3.87;3.30;;;7.10;99.90;;;;;;5112311;28;20237;-83
2021/03/05 11:40:25;;;;;;;5.13;3.60;;;7.10;99.90;;;;;;5110950;28;20567;-83
2021/03/05 11:42:56;;;;;;;6.07;3.43;;;7.10;99.90;;;;;;5114231;28;20205;-83
2021/03/05 11:45:27;;;;;;;4.37;3.20;;;7.00;99.90;;;;;;5112374;28;20206;-83
2021/03/05 11:48:00;;;;;;;4.07;3.33;;;7.00;99.90;;;;;;5114043;28;20210;-84
2021/03/05 11:50:33;;;;;;;5.80;3.27;;;7.00;99.90;;;;;;5113536;28;20205;-83
2021/03/05 11:53:03;;;;;;;5.50;3.53;;;7.00;99.90;;;;;;5113348;28;20289;-82
2021/03/05 11:55:34;;;;;;;4.53;3.40;;;7.10;99.90;;;;;;5112405;28;20242;-82
2021/03/05 11:58:05;;;;;;;4.67;3.03;;;7.10;99.90;;;;;;5113519;28;20229;-83
2021/03/05 12:00:36;;;;;;;4.40;3.13;;;7.10;99.90;;;;;;5113441;28;20290;-82
2021/03/05 12:03:09;;;;;;;4.03;3.20;;;7.10;99.90;;;;;;5112042;28;20240;-82
2021/03/05 12:05:40;;;;;;;4.03;2.90;;;7.00;99.90;;;;;;5114273;28;20206;-82
2021/03/05 12:08:10;;;;;;;4.20;2.90;;;7.00;99.90;;;;;;5113917;28;20251;-84
2021/03/05 12:10:40;;;;;;;4.57;3.10;;;7.00;99.90;;;;;;5114273;28;20209;-82
2021/03/05 12:13:11;;;;;;;3.67;2.97;;;7.00;99.90;;;;;;5095449;28;20211;-84
2021/03/05 12:15:40;;;;;;;6.00;3.00;;;7.00;99.90;;;;;;5093495;28;20206;-83
2021/03/05 12:18:12;;;;;;;5.00;2.73;;;7.00;99.90;;;;;;5093956;28;20651;-83
2021/03/05 12:20:42;;;;;;;3.90;3.37;;;7.00;99.90;;;;;;5094179;28;20658;-83
2021/03/05 12:23:13;;;;;;;4.60;3.63;;;7.00;99.90;;;;;;5093633;28;20210;-84
2021/03/05 12:25:43;;;;;;;5.50;3.50;;;7.00;99.90;;;;;;5107942;28;20282;-83
2021/03/05 12:28:14;;;;;;;4.70;3.50;;;7.00;99.90;;;;;;5115209;28;20201;-84
2021/03/05 12:30:44;;;;;;;5.77;3.60;;;7.00;99.90;;;;;;5114274;28;20199;-82
2021/03/05 12:33:16;;;;;;;6.10;3.50;;;6.90;99.90;;;;;;5096728;28;20230;-82
2021/03/05 12:35:47;;;;;;;4.57;3.30;;;6.90;99.90;;;;;;5106067;28;20617;-84
2021/03/05 12:38:19;;;;;;;3.63;2.90;;;7.00;99.90;;;;;;5108806;28;20256;-82
2021/03/05 12:40:49;;;;;;;5.47;3.40;;;6.90;99.90;;;;;;5093280;28;20210;-82
2021/03/05 12:43:19;;;;;;;3.27;2.63;;;6.90;99.90;;;;;;5091864;28;20241;-82
2021/03/05 12:45:49;;;;;;;4.23;3.47;;;6.90;99.90;;;;;;5092681;28;20263;-82
2021/03/05 12:48:33;;;;;;;4.73;2.97;;;7.00;99.90;;;;;;5109942;28;20213;-82
2021/03/05 12:51:03;;;;;;;4.30;3.33;;;7.00;99.90;;;;;;5114128;28;20556;-83
2021/03/05 12:53:33;;;;;;;4.27;3.17;;;7.00;99.90;;;;;;5102566;28;20220;-83
2021/03/05 12:56:02;;;;;;;4.87;2.73;;;7.00;99.90;;;;;;5097844;28;20210;-83
2021/03/05 12:58:32;;;;;;;6.90;3.40;;;7.00;99.90;;;;;;5099482;28;20206;-83
2021/03/05 13:01:02;;;;;;;4.63;3.00;;;7.00;99.90;;;;;;5098536;28;20203;-83
2021/03/05 13:03:33;;;;;;;4.60;3.20;;;7.00;99.90;;;;;;5098845;28;20213;-82
2021/03/05 13:06:03;;;;;;;4.57;3.00;;;7.00;99.90;;;;;;5111125;28;20205;-83
2021/03/05 13:08:32;;;;;;;3.53;2.90;;;7.00;99.90;;;;;;5097009;28;20210;-81
2021/03/05 13:11:02;;;;;;;3.67;3.10;;;7.10;99.90;;;;;;5111793;28;20251;-84
2021/03/05 13:13:35;;;;;;;3.97;3.03;;;7.10;99.90;;;;;;5107777;28;20199;-85
2021/03/05 13:16:17;;;;;;;5.17;3.10;;;7.00;99.90;;;;;;5095750;28;20709;-84
2021/03/05 13:18:49;;;;;;;4.73;3.00;;;7.00;99.90;;;;;;5096663;28;20623;-83
2021/03/05 13:21:20;;;;;;;4.27;3.10;;;7.10;99.90;;;;;;5096752;28;20254;-85
2021/03/05 13:23:50;;;;;;;4.57;2.90;;;7.00;99.90;;;;;;5112947;28;20603;-84
2021/03/05 13:26:21;;;;;;;3.13;2.77;;;7.00;99.90;;;;;;5099663;28;20650;-84
2021/03/05 13:28:52;;;;;;;3.73;3.07;;;7.00;99.90;;;;;;5116595;28;20202;-83
2021/03/05 13:31:22;;;;;;;4.60;2.93;;;7.00;99.90;;;;;;5110731;28;20279;-83